Terminal Aerodrome Forecast
Issued by NWS

Home | Current Version | Previous Version | Text Only | Print | Product List | Glossary On
Versions: 1 2 3 4 5 6 7 8 9 10 11 12 13 14 15 16 17 18 19 20 21 22
050
FTUS43 KDVN 191728
TAFBRL
TAF
KBRL 191728Z 1918/2018 17006KT P6SM SCT200
     FM201200 16010KT 5SM BR OVC015 PROB30 2015/2018 2SM SHRA BR
      OVC008=

USA.gov is the U.S. government's official web portal to all federal, state and local government web resources and services.